createdAt,value
2022-09-23T00:00:27.067Z,1005.94
2022-09-23T00:01:27.066Z,1005.98
2022-09-23T00:02:27.086Z,1005.92
2022-09-23T00:03:27.025Z,1005.96
2022-09-23T00:04:27.018Z,1005.90
2022-09-23T00:05:27.293Z,1005.93
2022-09-23T00:06:26.976Z,1005.88
2022-09-23T00:07:26.953Z,1005.91
2022-09-23T00:08:26.953Z,1005.92
2022-09-23T00:09:26.932Z,1005.85
2022-09-23T00:10:26.938Z,1005.90
2022-09-23T00:11:27.188Z,1005.93
2022-09-23T00:12:26.916Z,1005.90
2022-09-23T00:13:26.884Z,1005.94
2022-09-23T00:14:26.883Z,1005.88
2022-09-23T00:15:27.157Z,1005.88
2022-09-23T00:16:26.889Z,1005.86
2022-09-23T00:17:26.837Z,1005.88
2022-09-23T00:18:27.054Z,1005.85
2022-09-23T00:19:26.816Z,1005.82
2022-09-23T00:20:26.806Z,1005.83
2022-09-23T00:21:26.794Z,1005.86
2022-09-23T00:22:26.787Z,1005.81
2022-09-23T00:23:27.028Z,1005.79
2022-09-23T00:24:26.777Z,1005.80
2022-09-23T00:25:26.747Z,1005.81
2022-09-23T00:26:26.752Z,1005.82
2022-09-23T00:27:26.729Z,1005.82
2022-09-23T00:28:27.041Z,1005.83
2022-09-23T00:29:27.018Z,1005.80
2022-09-23T00:30:26.743Z,1005.77
2022-09-23T00:31:26.681Z,1005.75
2022-09-23T00:32:26.691Z,1005.76
2022-09-23T00:33:26.649Z,1005.77
2022-09-23T00:34:26.842Z,1005.76
2022-09-23T00:35:26.891Z,1005.79
2022-09-23T00:36:26.623Z,1005.76
2022-09-23T00:37:26.610Z,1005.74
2022-09-23T00:38:26.614Z,1005.80
2022-09-23T00:39:26.593Z,1005.75
2022-09-23T00:40:26.931Z,1005.80
2022-09-23T00:41:26.564Z,1005.79
2022-09-23T00:42:26.560Z,1005.78
2022-09-23T00:43:26.534Z,1005.77
2022-09-23T00:44:26.545Z,1005.79
2022-09-23T00:45:26.757Z,1005.81
2022-09-23T00:46:26.579Z,1005.80
2022-09-23T00:47:26.506Z,1005.82
2022-09-23T00:48:26.495Z,1005.80
2022-09-23T00:49:26.483Z,1005.78
2022-09-23T00:50:26.766Z,1005.75
2022-09-23T00:51:26.456Z,1005.79
2022-09-23T00:52:26.432Z,1005.77
2022-09-23T00:53:26.415Z,1005.75
2022-09-23T00:54:26.428Z,1005.77
2022-09-23T00:55:26.716Z,1005.71
2022-09-23T00:56:26.385Z,1005.74
2022-09-23T00:57:26.389Z,1005.75
2022-09-23T00:58:26.365Z,1005.69
2022-09-23T00:59:26.368Z,1005.68
2022-09-23T01:00:26.366Z,1005.70
2022-09-23T01:01:26.358Z,1005.68
2022-09-23T01:02:26.371Z,1005.69
2022-09-23T01:03:26.304Z,1005.70
2022-09-23T01:04:26.295Z,1005.69
2022-09-23T01:05:26.310Z,1005.72
2022-09-23T01:06:26.282Z,1005.69
2022-09-23T01:07:26.270Z,1005.70
2022-09-23T01:08:26.268Z,1005.68
2022-09-23T01:09:26.290Z,1005.69
2022-09-23T01:10:26.237Z,1005.71
2022-09-23T01:11:26.229Z,1005.69
2022-09-23T01:12:26.198Z,1005.70
2022-09-23T01:13:26.202Z,1005.67
2022-09-23T01:14:26.214Z,1005.67
2022-09-23T01:15:26.186Z,1005.65
2022-09-23T01:16:26.223Z,1005.66
2022-09-23T01:17:26.139Z,1005.59
2022-09-23T01:18:26.130Z,1005.58
2022-09-23T01:19:26.119Z,1005.62
2022-09-23T01:20:26.110Z,1005.60
2022-09-23T01:21:26.402Z,1005.54
2022-09-23T01:22:26.105Z,1005.55
2022-09-23T01:23:26.084Z,1005.59
2022-09-23T01:24:26.073Z,1005.53
2022-09-23T01:25:26.062Z,1005.49
2022-09-23T01:26:26.315Z,1005.53
2022-09-23T01:27:26.034Z,1005.49
2022-09-23T01:28:26.020Z,1005.50
2022-09-23T01:29:26.019Z,1005.50
2022-09-23T01:30:26.021Z,1005.52
2022-09-23T01:31:25.971Z,1005.55
2022-09-23T01:32:26.293Z,1005.54
2022-09-23T01:33:25.962Z,1005.55
2022-09-23T01:34:25.956Z,1005.56
2022-09-23T01:35:25.935Z,1005.50
2022-09-23T01:36:25.933Z,1005.52
2022-09-23T01:37:26.165Z,1005.49
2022-09-23T01:38:25.917Z,1005.52
2022-09-23T01:39:25.913Z,1005.50
2022-09-23T01:40:25.942Z,1005.46
2022-09-23T01:41:25.869Z,1005.53
2022-09-23T01:42:25.867Z,1005.48
2022-09-23T01:43:25.856Z,1005.49
2022-09-23T01:44:25.839Z,1005.48
2022-09-23T01:45:25.814Z,1005.43
2022-09-23T01:46:25.805Z,1005.43
2022-09-23T01:47:25.807Z,1005.42
2022-09-23T01:48:25.822Z,1005.43
2022-09-23T01:49:25.798Z,1005.44
2022-09-23T01:50:25.797Z,1005.42
2022-09-23T01:51:25.792Z,1005.41
2022-09-23T01:52:25.751Z,1005.36
2022-09-23T01:53:25.721Z,1005.34
2022-09-23T01:54:25.992Z,1005.32
2022-09-23T01:55:26.011Z,1005.33
2022-09-23T01:56:25.715Z,1005.38
2022-09-23T01:57:25.679Z,1005.39
2022-09-23T01:58:25.679Z,1005.40
2022-09-23T01:59:25.862Z,1005.36
2022-09-23T02:00:25.638Z,1005.45
2022-09-23T02:01:25.739Z,1005.39
2022-09-23T02:02:25.957Z,1005.39
2022-09-23T02:03:25.599Z,1005.37
2022-09-23T02:04:25.839Z,1005.36
2022-09-23T02:05:25.913Z,1005.38
2022-09-23T02:06:25.571Z,1005.33
2022-09-23T02:07:25.560Z,1005.36
2022-09-23T02:08:25.549Z,1005.36
2022-09-23T02:09:25.831Z,1005.30
2022-09-23T02:10:25.533Z,1005.33
2022-09-23T02:11:25.780Z,1005.34
2022-09-23T02:12:25.524Z,1005.28
2022-09-23T02:13:25.502Z,1005.32
2022-09-23T02:14:25.723Z,1005.28
2022-09-23T02:15:25.476Z,1005.29
2022-09-23T02:16:25.536Z,1005.32
2022-09-23T02:17:25.486Z,1005.34
2022-09-23T02:18:25.436Z,1005.31
2022-09-23T02:19:25.684Z,1005.32
2022-09-23T02:20:25.403Z,1005.36
2022-09-23T02:21:25.392Z,1005.30
2022-09-23T02:22:25.396Z,1005.34
2022-09-23T02:23:25.508Z,1005.31
2022-09-23T02:24:25.671Z,1005.36
2022-09-23T02:25:25.354Z,1005.33
2022-09-23T02:26:25.348Z,1005.31
2022-09-23T02:27:25.338Z,1005.27
2022-09-23T02:28:25.329Z,1005.29
2022-09-23T02:29:25.548Z,1005.26
2022-09-23T02:30:25.309Z,1005.28
2022-09-23T02:31:25.307Z,1005.25
2022-09-23T02:32:25.279Z,1005.23
2022-09-23T02:33:25.255Z,1005.19
2022-09-23T02:34:25.244Z,1005.20
2022-09-23T02:35:25.543Z,1005.19
2022-09-23T02:36:25.217Z,1005.14
2022-09-23T02:37:25.508Z,1005.12
2022-09-23T02:38:25.209Z,1005.18
2022-09-23T02:39:25.202Z,1005.18
2022-09-23T02:40:25.232Z,1005.10
2022-09-23T02:41:25.165Z,1005.10
2022-09-23T02:42:25.398Z,1005.08
2022-09-23T02:43:25.138Z,1005.05
2022-09-23T02:44:25.119Z,1005.03
2022-09-23T02:45:25.130Z,1004.98
2022-09-23T02:46:25.137Z,1004.95
2022-09-23T02:47:25.123Z,1004.97
2022-09-23T02:48:25.091Z,1004.96
2022-09-23T02:49:25.069Z,1004.97
2022-09-23T02:50:25.050Z,1004.96
2022-09-23T02:51:25.060Z,1004.97
2022-09-23T02:52:25.049Z,1004.98
2022-09-23T02:53:25.031Z,1004.93
2022-09-23T02:54:25.002Z,1004.94
2022-09-23T02:55:25.013Z,1004.94
2022-09-23T02:56:24.981Z,1004.90
2022-09-23T02:57:25.304Z,1004.91
2022-09-23T02:58:24.962Z,1004.92
2022-09-23T02:59:24.952Z,1004.85
2022-09-23T03:00:24.931Z,1004.89
2022-09-23T03:01:25.048Z,1004.82
2022-09-23T03:02:25.177Z,1004.87
2022-09-23T03:03:24.916Z,1004.81
2022-09-23T03:04:24.904Z,1004.78
2022-09-23T03:05:24.904Z,1004.80
2022-09-23T03:06:24.862Z,1004.83
2022-09-23T03:07:25.142Z,1004.81
2022-09-23T03:08:24.856Z,1004.79
2022-09-23T03:09:24.834Z,1004.81
2022-09-23T03:10:24.840Z,1004.79
2022-09-23T03:11:24.805Z,1004.78
2022-09-23T03:12:25.025Z,1004.76
2022-09-23T03:13:29.174Z,1004.70
2022-09-23T03:14:24.765Z,1004.69
2022-09-23T03:15:24.778Z,1004.69
2022-09-23T03:16:24.806Z,1004.74
2022-09-23T03:17:25.056Z,1004.65
2022-09-23T03:18:24.724Z,1004.68
2022-09-23T03:19:24.728Z,1004.69
2022-09-23T03:20:24.697Z,1004.70
2022-09-23T03:21:24.701Z,1004.70
2022-09-23T03:22:24.999Z,1004.66
2022-09-23T03:23:24.978Z,1004.69
2022-09-23T03:24:24.658Z,1004.74
2022-09-23T03:25:24.645Z,1004.67
2022-09-23T03:26:24.640Z,1004.72
2022-09-23T03:27:24.633Z,1004.69
2022-09-23T03:28:24.798Z,1004.71
2022-09-23T03:29:24.597Z,1004.69
2022-09-23T03:30:24.579Z,1004.71
2022-09-23T03:31:24.624Z,1004.72
2022-09-23T03:32:24.559Z,1004.70
2022-09-23T03:33:28.396Z,1004.70
2022-09-23T03:34:24.553Z,1004.68
2022-09-23T03:35:24.541Z,1004.73
2022-09-23T03:36:24.510Z,1004.70
2022-09-23T03:37:24.523Z,1004.69
2022-09-23T03:38:24.753Z,1004.70
2022-09-23T03:39:24.479Z,1004.71
2022-09-23T03:40:24.512Z,1004.66
2022-09-23T03:41:24.473Z,1004.69
2022-09-23T03:42:24.704Z,1004.74
2022-09-23T03:43:24.431Z,1004.68
2022-09-23T03:44:24.433Z,1004.71
2022-09-23T03:45:24.493Z,1004.69
2022-09-23T03:46:24.412Z,1004.68
2022-09-23T03:47:24.712Z,1004.69
2022-09-23T03:48:24.416Z,1004.66
2022-09-23T03:49:24.385Z,1004.63
2022-09-23T03:50:24.592Z,1004.70
2022-09-23T03:51:24.365Z,1004.63
2022-09-23T03:52:24.346Z,1004.66
2022-09-23T03:53:24.327Z,1004.65
2022-09-23T03:54:31.341Z,1004.65
2022-09-23T03:55:24.634Z,1004.63
2022-09-23T03:56:24.282Z,1004.60
2022-09-23T03:57:24.274Z,1004.60
2022-09-23T03:58:24.276Z,1004.59
2022-09-23T03:59:24.262Z,1004.59
2022-09-23T04:00:24.252Z,1004.56
2022-09-23T04:01:24.564Z,1004.51
2022-09-23T04:02:24.268Z,1004.52
2022-09-23T04:03:24.217Z,1004.54
2022-09-23T04:04:24.202Z,1004.52
2022-09-23T04:05:24.198Z,1004.51
2022-09-23T04:06:24.501Z,1004.51
2022-09-23T04:07:24.167Z,1004.49
2022-09-23T04:08:24.159Z,1004.48
2022-09-23T04:09:24.126Z,1004.50
2022-09-23T04:10:24.117Z,1004.49
2022-09-23T04:11:24.407Z,1004.52
2022-09-23T04:12:24.112Z,1004.48
2022-09-23T04:13:24.087Z,1004.52
2022-09-23T04:14:24.343Z,1004.52
2022-09-23T04:15:24.080Z,1004.49
2022-09-23T04:16:24.089Z,1004.49
2022-09-23T04:17:24.310Z,1004.52
2022-09-23T04:18:24.040Z,1004.49
2022-09-23T04:19:24.030Z,1004.52
2022-09-23T04:20:23.998Z,1004.51
2022-09-23T04:21:23.990Z,1004.47
2022-09-23T04:22:24.320Z,1004.52
2022-09-23T04:23:23.982Z,1004.48
2022-09-23T04:24:23.985Z,1004.47
2022-09-23T04:25:24.168Z,1004.46
2022-09-23T04:26:23.953Z,1004.45
2022-09-23T04:27:23.924Z,1004.46
2022-09-23T04:28:24.211Z,1004.44
2022-09-23T04:29:23.901Z,1004.45
2022-09-23T04:30:23.890Z,1004.46
2022-09-23T04:31:24.243Z,1004.42
2022-09-23T04:32:23.861Z,1004.41
2022-09-23T04:33:23.859Z,1004.42
2022-09-23T04:34:24.157Z,1004.36
2022-09-23T04:35:23.845Z,1004.40
2022-09-23T04:36:23.812Z,1004.37
2022-09-23T04:37:23.805Z,1004.36
2022-09-23T04:38:23.792Z,1004.35
2022-09-23T04:39:24.081Z,1004.34
2022-09-23T04:40:23.857Z,1004.30
2022-09-23T04:41:23.761Z,1004.25
2022-09-23T04:42:23.756Z,1004.33
2022-09-23T04:43:23.756Z,1004.34
2022-09-23T04:44:24.051Z,1004.27
2022-09-23T04:45:23.715Z,1004.27
2022-09-23T04:46:24.059Z,1004.25
2022-09-23T04:47:23.684Z,1004.27
2022-09-23T04:48:23.996Z,1004.24
2022-09-23T04:49:23.680Z,1004.26
2022-09-23T04:50:23.655Z,1004.21
2022-09-23T04:51:23.659Z,1004.16
2022-09-23T04:52:23.649Z,1004.12
2022-09-23T04:53:23.886Z,1004.15
2022-09-23T04:54:23.629Z,1004.13
2022-09-23T04:55:23.915Z,1004.13
2022-09-23T04:56:23.585Z,1004.13
2022-09-23T04:57:23.592Z,1004.13
2022-09-23T04:58:23.570Z,1004.12
2022-09-23T04:59:23.548Z,1004.09
2022-09-23T05:00:23.852Z,1004.11
2022-09-23T05:01:23.619Z,1004.07
2022-09-23T05:02:23.642Z,1004.10
2022-09-23T05:03:23.506Z,1004.07
2022-09-23T05:04:23.513Z,1004.07
2022-09-23T05:05:23.789Z,1004.05
2022-09-23T05:06:23.481Z,1004.04
2022-09-23T05:07:23.471Z,1004.08
2022-09-23T05:08:23.438Z,1004.04
2022-09-23T05:09:23.443Z,1004.08
2022-09-23T05:10:23.720Z,1004.04
2022-09-23T05:11:23.414Z,1004.10
2022-09-23T05:12:23.672Z,1004.07
2022-09-23T05:13:23.400Z,1004.06
2022-09-23T05:14:23.380Z,1004.06
2022-09-23T05:15:23.611Z,1004.09
2022-09-23T05:16:23.499Z,1004.08
2022-09-23T05:17:23.357Z,1004.07
2022-09-23T05:18:23.581Z,1004.08
2022-09-23T05:19:23.336Z,1004.06
2022-09-23T05:20:23.315Z,1004.06
2022-09-23T05:21:23.302Z,1004.10
2022-09-23T05:22:23.295Z,1004.08
2022-09-23T05:23:23.588Z,1004.10
2022-09-23T05:24:23.263Z,1004.13
2022-09-23T05:25:23.502Z,1004.10
2022-09-23T05:26:23.247Z,1004.16
2022-09-23T05:27:23.224Z,1004.13
2022-09-23T05:28:23.434Z,1004.15
2022-09-23T05:29:23.215Z,1004.17
2022-09-23T05:30:23.199Z,1004.11
2022-09-23T05:31:23.217Z,1004.16
2022-09-23T05:32:23.184Z,1004.13
2022-09-23T05:33:23.168Z,1004.17
2022-09-23T05:34:23.144Z,1004.17
2022-09-23T05:35:23.135Z,1004.15
2022-09-23T05:36:23.170Z,1004.16
2022-09-23T05:37:23.119Z,1004.25
2022-09-23T05:38:23.111Z,1004.21
2022-09-23T05:39:23.099Z,1004.17
2022-09-23T05:40:23.115Z,1004.22
2022-09-23T05:41:23.378Z,1004.20
2022-09-23T05:42:23.278Z,1004.23
2022-09-23T05:43:23.037Z,1004.24
2022-09-23T05:44:23.029Z,1004.19
2022-09-23T05:45:23.024Z,1004.20
2022-09-23T05:46:23.054Z,1004.25
2022-09-23T05:47:23.007Z,1004.24
2022-09-23T05:48:22.992Z,1004.24
2022-09-23T05:49:33.221Z,1004.23
2022-09-23T05:50:23.959Z,1004.23
2022-09-23T05:51:25.467Z,1004.24
2022-09-23T05:52:22.962Z,1004.27
2022-09-23T05:53:22.940Z,1004.22
2022-09-23T05:54:22.911Z,1004.23
2022-09-23T05:55:22.910Z,1004.23
2022-09-23T05:56:22.880Z,1004.24
2022-09-23T05:57:23.118Z,1004.25
2022-09-23T05:58:22.905Z,1004.29
2022-09-23T05:59:22.866Z,1004.26
2022-09-23T06:00:22.860Z,1004.30
2022-09-23T06:01:22.871Z,1004.30
2022-09-23T06:02:22.903Z,1004.26
2022-09-23T06:03:22.856Z,1004.26
2022-09-23T06:04:22.841Z,1004.26
2022-09-23T06:05:22.806Z,1004.21
2022-09-23T06:06:22.766Z,1004.24
2022-09-23T06:07:22.775Z,1004.20
2022-09-23T06:08:22.758Z,1004.19
2022-09-23T06:09:22.735Z,1004.18
2022-09-23T06:10:22.737Z,1004.18
2022-09-23T06:11:22.726Z,1004.15
2022-09-23T06:12:22.693Z,1004.15
2022-09-23T06:13:22.906Z,1004.21
2022-09-23T06:14:22.696Z,1004.21
2022-09-23T06:15:22.665Z,1004.17
2022-09-23T06:16:22.726Z,1004.22
2022-09-23T06:17:22.643Z,1004.24
2022-09-23T06:18:22.644Z,1004.23
2022-09-23T06:19:22.835Z,1004.18
2022-09-23T06:20:22.605Z,1004.22
2022-09-23T06:21:22.608Z,1004.19
2022-09-23T06:22:22.805Z,1004.17
2022-09-23T06:23:25.922Z,1004.20
2022-09-23T06:24:27.192Z,1004.19
2022-09-23T06:25:23.560Z,1004.24
2022-09-23T06:26:22.555Z,1004.16
2022-09-23T06:27:22.534Z,1004.16
2022-09-23T06:28:22.731Z,1004.17
2022-09-23T06:29:22.509Z,1004.21
2022-09-23T06:30:22.525Z,1004.15
2022-09-23T06:31:22.535Z,1004.22
2022-09-23T06:32:22.479Z,1004.17
2022-09-23T06:33:32.776Z,1004.13
2022-09-23T06:34:23.469Z,1004.11
2022-09-23T06:35:27.441Z,1004.10
2022-09-23T06:36:39.068Z,1004.12
2022-09-23T06:37:23.443Z,1004.13
2022-09-23T06:38:22.412Z,1004.24
2022-09-23T06:39:22.393Z,1004.19
2022-09-23T06:40:22.570Z,1004.18
2022-09-23T06:41:22.588Z,1004.19
2022-09-23T06:42:22.362Z,1004.21
2022-09-23T06:43:22.340Z,1004.22
2022-09-23T06:44:22.343Z,1004.21
2022-09-23T06:45:22.324Z,1004.22
2022-09-23T06:46:22.638Z,1004.23
2022-09-23T06:47:22.304Z,1004.19
2022-09-23T06:48:22.291Z,1004.19
2022-09-23T06:49:22.262Z,1004.25
2022-09-23T06:50:22.252Z,1004.21
2022-09-23T06:51:22.262Z,1004.28
2022-09-23T06:52:22.245Z,1004.27
2022-09-23T06:53:22.220Z,1004.27
2022-09-23T06:54:22.240Z,1004.17
2022-09-23T06:55:22.205Z,1004.18
2022-09-23T06:56:22.198Z,1004.21
2022-09-23T06:57:22.181Z,1004.22
2022-09-23T06:58:22.170Z,1004.20
2022-09-23T06:59:22.176Z,1004.21
2022-09-23T07:00:22.149Z,1004.24
2022-09-23T07:01:22.186Z,1004.16
2022-09-23T07:02:22.218Z,1004.21
2022-09-23T07:03:22.119Z,1004.20
2022-09-23T07:04:25.046Z,1004.15
2022-09-23T07:05:23.075Z,1004.16
2022-09-23T07:06:22.074Z,1004.23
2022-09-23T07:07:22.374Z,1004.16
2022-09-23T07:08:22.059Z,1004.12
2022-09-23T07:09:22.335Z,1004.17
2022-09-23T07:10:22.039Z,1004.10
2022-09-23T07:11:22.022Z,1004.11
2022-09-23T07:12:22.278Z,1004.15
2022-09-23T07:13:21.990Z,1004.11
2022-09-23T07:14:22.000Z,1004.11
2022-09-23T07:15:21.970Z,1004.20
2022-09-23T07:16:22.293Z,1004.14
2022-09-23T07:17:21.956Z,1004.21
2022-09-23T07:18:21.941Z,1004.21
2022-09-23T07:19:22.231Z,1004.26
2022-09-23T07:20:21.908Z,1004.23
2022-09-23T07:21:21.911Z,1004.26
2022-09-23T07:22:21.905Z,1004.30
2022-09-23T07:23:21.869Z,1004.28
2022-09-23T07:24:22.102Z,1004.27
2022-09-23T07:25:21.863Z,1004.27
2022-09-23T07:26:21.839Z,1004.24
2022-09-23T07:27:21.829Z,1004.24
2022-09-23T07:28:21.819Z,1004.28
2022-09-23T07:29:22.130Z,1004.30
2022-09-23T07:30:25.378Z,1004.31
2022-09-23T07:31:33.991Z,1004.28
2022-09-23T07:32:22.830Z,1004.28
2022-09-23T07:33:31.814Z,1004.27
2022-09-23T07:34:22.781Z,1004.27
2022-09-23T07:35:21.747Z,1004.26
2022-09-23T07:36:21.721Z,1004.30
2022-09-23T07:37:22.025Z,1004.22
2022-09-23T07:38:21.716Z,1004.28
2022-09-23T07:39:21.694Z,1004.25
2022-09-23T07:40:21.759Z,1004.23
2022-09-23T07:41:21.671Z,1004.25
2022-09-23T07:42:21.916Z,1004.23
2022-09-23T07:43:21.653Z,1004.30
2022-09-23T07:44:21.966Z,1004.27
2022-09-23T07:45:21.604Z,1004.32
2022-09-23T07:46:21.680Z,1004.34
2022-09-23T07:47:21.597Z,1004.31
2022-09-23T07:48:21.914Z,1004.33
2022-09-23T07:49:21.580Z,1004.34
2022-09-23T07:50:21.580Z,1004.31
2022-09-23T07:51:21.664Z,1004.30
2022-09-23T07:52:21.548Z,1004.35
2022-09-23T07:53:21.830Z,1004.29
2022-09-23T07:54:21.519Z,1004.33
2022-09-23T07:55:21.497Z,1004.34
2022-09-23T07:56:21.790Z,1004.29
2022-09-23T07:57:21.489Z,1004.31
2022-09-23T07:58:21.479Z,1004.26
2022-09-23T07:59:21.461Z,1004.27
2022-09-23T08:00:21.439Z,1004.27
2022-09-23T08:01:21.480Z,1004.27
2022-09-23T08:02:21.497Z,1004.29
2022-09-23T08:03:21.399Z,1004.25
2022-09-23T08:04:21.684Z,1004.29
2022-09-23T08:05:21.396Z,1004.27
2022-09-23T08:06:21.384Z,1004.36
2022-09-23T08:07:21.375Z,1004.27
2022-09-23T08:08:21.362Z,1004.33
2022-09-23T08:09:21.646Z,1004.26
2022-09-23T08:10:21.363Z,1004.32
2022-09-23T08:11:21.311Z,1004.26
2022-09-23T08:12:21.621Z,1004.26
2022-09-23T08:13:21.305Z,1004.30
2022-09-23T08:14:21.562Z,1004.27
2022-09-23T08:15:21.275Z,1004.30
2022-09-23T08:16:21.540Z,1004.27
2022-09-23T08:17:21.256Z,1004.26
2022-09-23T08:18:21.233Z,1004.29
2022-09-23T08:19:21.215Z,1004.28
2022-09-23T08:20:21.213Z,1004.30
2022-09-23T08:21:21.227Z,1004.35
2022-09-23T08:22:21.205Z,1004.31
2022-09-23T08:23:21.186Z,1004.33
2022-09-23T08:24:21.184Z,1004.32
2022-09-23T08:25:22.670Z,1004.26
2022-09-23T08:26:22.448Z,1004.29
2022-09-23T08:27:21.459Z,1004.28
2022-09-23T08:28:21.116Z,1004.32
2022-09-23T08:29:21.130Z,1004.27
2022-09-23T08:30:21.094Z,1004.28
2022-09-23T08:31:21.090Z,1004.30
2022-09-23T08:32:21.096Z,1004.25
2022-09-23T08:33:23.550Z,1004.26
2022-09-23T08:34:21.073Z,1004.24
2022-09-23T08:35:21.028Z,1004.27
2022-09-23T08:36:21.028Z,1004.27
2022-09-23T08:37:21.292Z,1004.26
2022-09-23T08:38:21.039Z,1004.24
2022-09-23T08:39:21.006Z,1004.30
2022-09-23T08:40:21.024Z,1004.24
2022-09-23T08:41:20.963Z,1004.27
2022-09-23T08:42:20.974Z,1004.24
2022-09-23T08:43:21.142Z,1004.25
2022-09-23T08:44:20.961Z,1004.23
2022-09-23T08:45:20.930Z,1004.24
2022-09-23T08:46:20.946Z,1004.22
2022-09-23T08:47:20.902Z,1004.26
2022-09-23T08:48:20.905Z,1004.24
2022-09-23T08:49:20.905Z,1004.21
2022-09-23T08:50:20.952Z,1004.29
2022-09-23T08:51:20.888Z,1004.23
2022-09-23T08:52:20.843Z,1004.16
2022-09-23T08:53:20.847Z,1004.19
2022-09-23T08:54:20.824Z,1004.16
2022-09-23T08:55:20.812Z,1004.14
2022-09-23T08:56:20.812Z,1004.17
2022-09-23T08:57:21.111Z,1004.16
2022-09-23T08:58:25.381Z,1004.14
2022-09-23T08:59:21.776Z,1004.18
2022-09-23T09:00:20.851Z,1004.17
2022-09-23T09:01:20.765Z,1004.18
2022-09-23T09:02:20.805Z,1004.15
2022-09-23T09:03:21.049Z,1004.14
2022-09-23T09:04:20.733Z,1004.10
2022-09-23T09:05:20.710Z,1004.11
2022-09-23T09:06:20.690Z,1004.11
2022-09-23T09:07:37.377Z,1004.08
2022-09-23T09:08:21.657Z,1004.10
2022-09-23T09:09:20.976Z,1004.04
2022-09-23T09:10:20.694Z,1004.10
2022-09-23T09:11:20.632Z,1004.08
2022-09-23T09:12:20.932Z,1004.06
2022-09-23T09:13:20.613Z,1004.04
2022-09-23T09:14:20.615Z,1004.05
2022-09-23T09:15:20.781Z,1004.08
2022-09-23T09:16:31.662Z,1004.13
2022-09-23T09:17:21.554Z,1004.12
2022-09-23T09:18:20.562Z,1004.09
2022-09-23T09:19:20.531Z,1004.11
2022-09-23T09:20:20.543Z,1004.09
2022-09-23T09:21:20.536Z,1004.12
2022-09-23T09:22:20.501Z,1004.05
2022-09-23T09:23:20.512Z,1004.07
2022-09-23T09:24:20.487Z,1004.05
2022-09-23T09:25:20.476Z,1004.08
2022-09-23T09:26:20.451Z,1004.07
2022-09-23T09:27:20.446Z,1004.06
2022-09-23T09:28:20.438Z,1004.07
2022-09-23T09:29:34.709Z,1004.07
2022-09-23T09:30:21.404Z,1004.10
2022-09-23T09:31:20.414Z,1004.13
2022-09-23T09:32:20.376Z,1004.19
2022-09-23T09:33:20.380Z,1004.13
2022-09-23T09:34:20.356Z,1004.14
2022-09-23T09:35:20.358Z,1004.18
2022-09-23T09:36:20.555Z,1004.16
2022-09-23T09:37:20.352Z,1004.16
2022-09-23T09:38:20.309Z,1004.17
2022-09-23T09:39:25.469Z,1004.11
2022-09-23T09:40:21.392Z,1004.13
2022-09-23T09:41:20.295Z,1004.13
2022-09-23T09:42:20.581Z,1004.06
2022-09-23T09:43:20.254Z,1004.06
2022-09-23T09:44:20.253Z,1004.09
2022-09-23T09:45:20.220Z,1004.10
2022-09-23T09:46:20.267Z,1004.08
2022-09-23T09:47:20.200Z,1004.10
2022-09-23T09:48:20.491Z,1004.07
2022-09-23T09:49:20.180Z,1004.09
2022-09-23T09:50:20.168Z,1004.07
2022-09-23T09:51:20.163Z,1004.03
2022-09-23T09:52:20.150Z,1003.99
2022-09-23T09:53:20.113Z,1004.01
2022-09-23T09:54:20.363Z,1003.99
2022-09-23T09:55:27.058Z,1003.95
2022-09-23T09:56:20.059Z,1003.97
2022-09-23T09:57:20.040Z,1003.95
2022-09-23T09:58:20.017Z,1003.95
2022-09-23T09:59:20.009Z,1003.95
2022-09-23T10:00:20.010Z,1003.92
2022-09-23T10:01:20.053Z,1003.94
2022-09-23T10:02:19.974Z,1003.96
2022-09-23T10:03:19.967Z,1003.97
2022-09-23T10:04:19.995Z,1003.93
2022-09-23T10:05:19.943Z,1003.98
2022-09-23T10:06:19.925Z,1003.94
2022-09-23T10:07:20.171Z,1003.98
2022-09-23T10:08:19.915Z,1004.00
2022-09-23T10:09:19.888Z,1004.00
2022-09-23T10:10:31.919Z,1003.94
2022-09-23T10:11:21.177Z,1003.98
2022-09-23T10:12:19.860Z,1003.89
2022-09-23T10:13:19.837Z,1003.88
2022-09-23T10:14:19.826Z,1003.91
2022-09-23T10:15:19.831Z,1003.96
2022-09-23T10:16:19.847Z,1003.93
2022-09-23T10:17:19.821Z,1003.92
2022-09-23T10:18:19.792Z,1003.89
2022-09-23T10:19:19.780Z,1003.92
2022-09-23T10:20:19.768Z,1003.94
2022-09-23T10:21:23.021Z,1003.86
2022-09-23T10:22:20.979Z,1003.86
2022-09-23T10:23:19.732Z,1003.87
2022-09-23T10:24:19.724Z,1003.83
2022-09-23T10:25:19.703Z,1003.83
2022-09-23T10:26:19.691Z,1003.88
2022-09-23T10:27:20.001Z,1003.86
2022-09-23T10:28:19.662Z,1003.87
2022-09-23T10:29:19.644Z,1003.84
2022-09-23T10:30:19.656Z,1003.88
2022-09-23T10:31:19.638Z,1003.89
2022-09-23T10:32:19.654Z,1003.88
2022-09-23T10:33:19.617Z,1003.90
2022-09-23T10:34:19.609Z,1003.91
2022-09-23T10:35:19.577Z,1003.86
2022-09-23T10:36:19.574Z,1003.86
2022-09-23T10:37:19.576Z,1003.85
2022-09-23T10:38:19.789Z,1003.88
2022-09-23T10:39:19.537Z,1003.84
2022-09-23T10:40:19.576Z,1003.87
2022-09-23T10:41:19.512Z,1003.86
2022-09-23T10:42:19.525Z,1003.82
2022-09-23T10:43:19.702Z,1003.80
2022-09-23T10:44:19.486Z,1003.79
2022-09-23T10:45:19.515Z,1003.79
2022-09-23T10:46:19.510Z,1003.80
2022-09-23T10:47:19.469Z,1003.76
2022-09-23T10:48:19.436Z,1003.77
2022-09-23T10:49:19.429Z,1003.77
2022-09-23T10:50:19.438Z,1003.78
2022-09-23T10:51:24.081Z,1003.77
2022-09-23T10:52:20.411Z,1003.71
2022-09-23T10:53:19.390Z,1003.74
2022-09-23T10:54:19.370Z,1003.73
2022-09-23T10:55:19.670Z,1003.71
2022-09-23T10:56:19.352Z,1003.70
2022-09-23T10:57:19.344Z,1003.67
2022-09-23T10:58:19.346Z,1003.66
2022-09-23T10:59:19.325Z,1003.69
2022-09-23T11:00:19.629Z,1003.64
2022-09-23T11:01:19.643Z,1003.66
2022-09-23T11:02:19.308Z,1003.67
2022-09-23T11:03:19.287Z,1003.67
2022-09-23T11:04:19.321Z,1003.57
2022-09-23T11:05:19.250Z,1003.60
2022-09-23T11:06:19.257Z,1003.59
2022-09-23T11:07:19.251Z,1003.56
2022-09-23T11:08:19.234Z,1003.56
2022-09-23T11:09:19.211Z,1003.55
2022-09-23T11:10:35.410Z,1003.56
2022-09-23T11:11:20.206Z,1003.57
2022-09-23T11:12:19.174Z,1003.60
2022-09-23T11:13:19.386Z,1003.55
2022-09-23T11:14:19.170Z,1003.56
2022-09-23T11:15:19.146Z,1003.53
2022-09-23T11:16:19.200Z,1003.51
2022-09-23T11:17:19.140Z,1003.52
2022-09-23T11:18:19.134Z,1003.52
2022-09-23T11:19:19.132Z,1003.50
2022-09-23T11:20:19.112Z,1003.53
2022-09-23T11:21:19.084Z,1003.51
2022-09-23T11:22:19.094Z,1003.51
2022-09-23T11:23:19.063Z,1003.52
2022-09-23T11:24:19.052Z,1003.46
2022-09-23T11:25:19.048Z,1003.47
2022-09-23T11:26:19.035Z,1003.42
2022-09-23T11:27:19.047Z,1003.40
2022-09-23T11:28:19.009Z,1003.40
2022-09-23T11:29:18.987Z,1003.38
2022-09-23T11:30:18.978Z,1003.38
2022-09-23T11:31:19.020Z,1003.41
2022-09-23T11:32:18.960Z,1003.40
2022-09-23T11:33:19.149Z,1003.41
2022-09-23T11:34:18.947Z,1003.36
2022-09-23T11:35:18.945Z,1003.41
2022-09-23T11:36:18.910Z,1003.39
2022-09-23T11:37:18.915Z,1003.32
2022-09-23T11:38:19.159Z,1003.31
2022-09-23T11:39:18.915Z,1003.25
2022-09-23T11:40:45.633Z,1003.29
2022-09-23T11:41:19.009Z,1003.27
2022-09-23T11:42:18.844Z,1003.22
2022-09-23T11:43:19.044Z,1003.24
2022-09-23T11:44:18.838Z,1003.21
2022-09-23T11:45:19.039Z,1003.20
2022-09-23T11:46:18.869Z,1003.20
2022-09-23T11:47:18.786Z,1003.21
2022-09-23T11:48:18.801Z,1003.20
2022-09-23T11:49:18.778Z,1003.19
2022-09-23T11:50:18.786Z,1003.22
2022-09-23T11:51:18.749Z,1003.18
2022-09-23T11:52:18.756Z,1003.19
2022-09-23T11:53:18.716Z,1003.16
2022-09-23T11:54:20.743Z,1003.18
2022-09-23T11:55:22.787Z,1003.14
2022-09-23T11:56:29.431Z,1003.13
2022-09-23T11:57:20.009Z,1003.11
2022-09-23T11:58:25.404Z,1003.12
2022-09-23T11:59:24.798Z,1003.11
2022-09-23T12:00:19.661Z,1003.13
2022-09-23T12:01:23.520Z,1003.16
2022-09-23T12:02:21.690Z,1003.16
2022-09-23T12:03:18.750Z,1003.18
2022-09-23T12:04:21.173Z,1003.17
2022-09-23T12:05:18.713Z,1003.20